Flight Track Log - Related Links

Times and Time Zones

All times are in EDT time to prevent confusion due to time zone crossing. See the RPA3284 flight status page for this flight to view local times or setup timezone preferences in your user account.


Time Position Orientation Groundspeed Altitude Reporting Facility
EDT Latitude Longitude Course Direction KTS MPH feet Rate Location/Type
Tue 05:43:40 PM 35.1911 -80.9508 52° Northeast 164 189 1,400  Level Atlanta Center
Tue 05:45:12 PM 35.1406 -81.0164 227° Southwest 244 281 3,800 2,053 Climbing Atlanta Center
Tue 05:46:00 PM 35.1860 -81.2167 North  Level FlightAware Approximate
Tue 05:46:12 PM 35.1386 -81.0975 268° West 268 308 6,600  Level Atlanta Center
Tue 05:47:00 PM 35.2753 -81.1908 68° East  Level FlightAware Approximate
Tue 05:47:12 PM 35.2058 -81.1258 341° North 225 259 9,200  Level Atlanta Center
Tue 05:48:00 PM 35.3340 -81.0872 52° Northeast  Level FlightAware Approximate
Tue 05:48:12 PM 35.2797 -81.0747 29° Northeast 240 276 11,200  Level Atlanta Center
Tue 05:49:12 PM 35.3600 -81.0211 29° Northeast 289 333 13,000 1,750 Climbing Atlanta Center
Tue 05:50:12 PM 35.4503 -80.9692 25° Northeast 339 390 14,700 1,900 Climbing Atlanta Center
Tue 05:51:12 PM 35.5478 -80.9400 14° North 357 411 16,800 1,633 Climbing Atlanta Center
Tue 05:53:12 PM 35.7506 -80.8811 13° North 375 432 19,600 1,433 Climbing Atlanta Center
Tue 05:54:12 PM 35.8589 -80.8694 North 384 442 21,100 1,350 Climbing Atlanta Center
Tue 05:55:12 PM 35.9689 -80.8547 North 390 449 22,300 1,300 Climbing Atlanta Center
Tue 05:56:12 PM 36.0833 -80.8400 North 395 455 23,700 1,100 Climbing Atlanta Center
Tue 05:57:12 PM 36.1997 -80.8250 North 408 470 24,500 967 Climbing Atlanta Center
Tue 05:59:12 PM 36.4367 -80.7950 North 422 486 26,600 933 Climbing Atlanta Center
Tue 06:00:12 PM 36.5425 -80.7778 North 422 486 27,300 750 Climbing Atlanta Center
Tue 06:01:12 PM 36.6675 -80.7647 North 428 493 28,100 900 Climbing Atlanta Center
Tue 06:02:12 PM 36.8006 -80.7517 North 433 498 29,100 1,017 Climbing Atlanta Center
Tue 06:04:09 PM 37.0286 -80.7250 North 444 511 31,100 1,034 Climbing Washington Center
Tue 06:05:06 PM 37.1489 -80.6967 11° North 444 511 32,100 974 Climbing Washington Center
Tue 06:06:06 PM 37.2631 -80.6600 14° North 431 496 33,000 443 Climbing Washington Center
Tue 06:07:08 PM 37.3794 -80.6206 15° North 426 490 33,000 590 Level Washington Center
Tue 06:08:08 PM 37.4853 -80.5831 16° North 432 497 34,200 496 Climbing Washington Center
Tue 06:09:09 PM 37.6039 -80.5436 15° North 432 497 34,000 -101 Descending Washington Center
Tue 06:10:07 PM 37.7244 -80.5044 14° North 437 503 34,000  Level Washington Center
Tue 06:11:08 PM 37.8428 -80.4647 15° North 437 503 34,000  Level Washington Center
Tue 06:12:09 PM 37.9739 -80.4206 15° North 443 510 34,000  Level Washington Center
Tue 06:13:06 PM 38.0925 -80.3781 16° North 443 510 34,000 254 Level Washington Center
Tue 06:14:07 PM 38.2108 -80.3381 15° North 443 510 34,500 496 Climbing Washington Center
Tue 06:15:07 PM 38.3250 -80.2978 15° North 437 503 35,000 246 Climbing Washington Center
Tue 06:16:09 PM 38.4328 -80.2622 14° North 437 503 35,000  Level Washington Center
Tue 06:20:00 PM 38.8864 -80.0978 16° North 429 494 35,000  Level Cleveland Center
Tue 06:21:00 PM 39.0094 -80.0889 North 434 499 35,000  Level Cleveland Center
Tue 06:22:00 PM 39.1261 -80.0961 357° North 427 491 35,000  Level Cleveland Center
Tue 06:23:00 PM 39.2428 -80.0819 North 422 486 35,000  Level Cleveland Center
Tue 06:24:00 PM 39.3381 -79.9819 39° Northeast 423 487 35,000  Level Cleveland Center
Tue 06:25:00 PM 39.4269 -79.8683 45° Northeast 448 516 35,000  Level Cleveland Center
Tue 06:26:00 PM 39.5181 -79.7542 44° Northeast 448 516 35,000  Level Cleveland Center
Tue 06:27:00 PM 39.6067 -79.6372 45° Northeast 448 516 35,000  Level Cleveland Center
Tue 06:28:00 PM 39.6953 -79.5200 45° Northeast 448 516 35,000  Level Cleveland Center
Tue 06:29:00 PM 39.7858 -79.4025 45° Northeast 448 516 35,000  Level Cleveland Center
Tue 06:30:00 PM 39.8742 -79.2872 45° Northeast 448 516 35,000  Level Cleveland Center
Tue 06:31:00 PM 39.9647 -79.1692 45° Northeast 448 516 35,000  Level Cleveland Center
Tue 06:32:00 PM 40.0547 -79.0533 45° Northeast 448 516 35,000  Level Cleveland Center
Tue 06:33:00 PM 40.1367 -78.9375 47° Northeast 443 510 35,000  Level Cleveland Center
Tue 06:34:00 PM 40.2286 -78.8208 44° Northeast 443 510 35,000  Level Cleveland Center
Tue 06:35:00 PM 40.3144 -78.7044 46° Northeast 443 510 35,000  Level Cleveland Center
Tue 06:36:52 PM 40.4786 -78.4828 46° Northeast 449 517 35,000  Level New York Center
Tue 06:37:53 PM 40.5769 -78.3517 45° Northeast 449 517 35,000  Level New York Center
Tue 06:38:53 PM 40.6636 -78.2325 46° Northeast 454 522 35,000  Level New York Center
Tue 06:39:52 PM 40.7547 -78.1081 46° Northeast 454 522 35,000  Level New York Center
Tue 06:40:53 PM 40.8433 -77.9886 46° Northeast 454 522 35,000  Level New York Center
Tue 06:41:53 PM 40.9300 -77.8686 46° Northeast 454 522 35,000 -153 Level New York Center
Tue 06:42:51 PM 41.0183 -77.7486 46° Northeast 454 522 34,700 -1,068 Descending New York Center
Tue 06:43:51 PM 41.1067 -77.6281 46° Northeast 454 522 32,900 -1,835 Descending New York Center
Tue 06:44:52 PM 41.1972 -77.5022 46° Northeast 454 522 31,000 -1,900 Descending New York Center
Tue 06:45:51 PM 41.2872 -77.3814 45° Northeast 459 528 29,100 -992 Descending New York Center
Tue 06:46:53 PM 41.3667 -77.2647 48° Northeast 459 528 29,000 -50 Descending New York Center
Tue 06:47:51 PM 41.4589 -77.1378 46° Northeast 466 536 29,000  Level New York Center
Tue 06:48:52 PM 41.5514 -77.0081 46° Northeast 472 543 29,000  Level New York Center
Tue 06:49:53 PM 41.6369 -76.8856 47° Northeast 462 532 29,000  Level New York Center
Tue 06:50:53 PM 41.7267 -76.7575 47° Northeast 462 532 29,000  Level New York Center
Tue 06:51:53 PM 41.8139 -76.6372 46° Northeast 462 532 29,000 -647 Level New York Center
Tue 06:54:17 PM 42.0250 -76.3308 47° Northeast 463 533 26,800 -1,176 Descending Boston Center
Tue 06:55:17 PM 42.1106 -76.2103 46° Northeast 449 517 25,000 -1,400 Descending Boston Center
Tue 06:56:17 PM 42.1794 -76.0769 55° Northeast 437 503 24,000 -500 Descending Boston Center
Tue 06:57:17 PM 42.2319 -75.9314 64° Northeast 426 490 24,000  Level Boston Center
Tue 06:58:17 PM 42.2869 -75.7717 65° Northeast 426 490 24,000  Level Boston Center
Tue 06:59:17 PM 42.3200 -75.6358 72° East 421 484 24,000  Level Boston Center
Tue 07:00:17 PM 42.3575 -75.4803 72° East 421 484 24,000  Level Boston Center
Tue 07:01:17 PM 42.4011 -75.3278 69° East 426 490 24,000 -350 Level Boston Center
Tue 07:02:17 PM 42.4528 -75.1781 65° Northeast 426 490 23,300 -1,550 Descending Boston Center
Tue 07:03:17 PM 42.5000 -75.0367 66° East 426 490 20,900 -2,400 Descending Boston Center
Tue 07:04:17 PM 42.5489 -74.9006 64° Northeast 410 472 18,500 -2,500 Descending Boston Center
Tue 07:05:17 PM 42.6039 -74.7561 63° Northeast 390 449 15,900 -2,536 Descending Boston Center
Tue 07:05:54 PM 42.6408 -74.6897 53° Northeast 372 428 14,400 -2,418 Descending Boston Center
Tue 07:06:24 PM 42.6692 -74.6286 58° Northeast 369 425 13,200 -2,386 Descending Boston Center
Tue 07:07:17 PM 42.6983 -74.5167 70° East 359 413 11,100 -1,438 Descending Boston Center
Tue 07:08:25 PM 42.7339 -74.3906 69° East 320 368 10,300 -1,100 Descending Boston Center
Tue 07:09:17 PM 42.7625 -74.2925 68° East 309 356 8,900 -1,607 Descending Boston Center
Tue 07:10:17 PM 42.7911 -74.1914 69° East 288 331 7,300 -1,500 Descending Boston Center
Tue 07:11:17 PM 42.8156 -74.0931 71° East 278 320 5,900 -1,350 Descending Boston Center
Tue 07:12:17 PM 42.8356 -74.0086 72° East 273 314 4,600 -1,182 Descending Boston Center
Tue 07:13:29 PM 42.8622 -73.8903 73° East 256 295 3,300 -1,174 Descending Boston Center
Tue 07:14:35 PM 42.8319 -73.8161 119° Southeast 181 208 1,900 -1,273 Descending Boston Center

Login

Don't have an account? Register now (free) for customized features, flight alerts, and more!